sensor_id;sensor_type;location;lat;lon;timestamp;P1;durP1;ratioP1;P2;durP2;ratioP2
67442;SDS011;54311;51.726;5.154;2023-07-29T00:02:10;6.70;;;5.97;;
67442;SDS011;54311;51.726;5.154;2023-07-29T00:04:35;6.88;;;6.03;;
67442;SDS011;54311;51.726;5.154;2023-07-29T00:07:00;6.57;;;6.05;;
67442;SDS011;54311;51.726;5.154;2023-07-29T00:09:26;6.55;;;6.05;;
67442;SDS011;54311;51.726;5.154;2023-07-29T00:11:51;8.23;;;7.30;;
67442;SDS011;54311;51.726;5.154;2023-07-29T00:14:16;7.88;;;7.18;;
67442;SDS011;54311;51.726;5.154;2023-07-29T00:16:42;8.55;;;6.95;;
67442;SDS011;54311;51.726;5.154;2023-07-29T00:19:08;7.32;;;6.63;;
67442;SDS011;54311;51.726;5.154;2023-07-29T00:21:33;7.35;;;6.65;;
67442;SDS011;54311;51.726;5.154;2023-07-29T00:23:59;7.72;;;6.95;;
67442;SDS011;54311;51.726;5.154;2023-07-29T00:26:26;7.80;;;7.07;;
67442;SDS011;54311;51.726;5.154;2023-07-29T00:28:53;8.02;;;7.32;;
67442;SDS011;54311;51.726;5.154;2023-07-29T00:31:19;8.52;;;7.35;;
67442;SDS011;54311;51.726;5.154;2023-07-29T00:33:44;10.02;;;8.52;;
67442;SDS011;54311;51.726;5.154;2023-07-29T00:36:10;8.32;;;7.53;;
67442;SDS011;54311;51.726;5.154;2023-07-29T00:38:35;8.38;;;7.63;;
67442;SDS011;54311;51.726;5.154;2023-07-29T00:41:02;7.82;;;7.28;;
67442;SDS011;54311;51.726;5.154;2023-07-29T00:43:28;9.00;;;7.45;;
67442;SDS011;54311;51.726;5.154;2023-07-29T00:45:53;8.85;;;8.00;;
67442;SDS011;54311;51.726;5.154;2023-07-29T00:48:19;8.48;;;7.38;;
67442;SDS011;54311;51.726;5.154;2023-07-29T00:50:44;9.95;;;7.43;;
67442;SDS011;54311;51.726;5.154;2023-07-29T00:53:10;9.18;;;7.57;;
67442;SDS011;54311;51.726;5.154;2023-07-29T00:55:35;9.98;;;7.40;;
67442;SDS011;54311;51.726;5.154;2023-07-29T00:58:00;8.15;;;7.35;;
67442;SDS011;54311;51.726;5.154;2023-07-29T01:00:26;9.30;;;7.50;;
67442;SDS011;54311;51.726;5.154;2023-07-29T01:02:52;12.38;;;7.80;;
67442;SDS011;54311;51.726;5.154;2023-07-29T01:05:19;10.07;;;7.32;;
67442;SDS011;54311;51.726;5.154;2023-07-29T01:08:21;8.52;;;7.35;;
67442;SDS011;54311;51.726;5.154;2023-07-29T01:11:35;7.90;;;7.22;;
67442;SDS011;54311;51.726;5.154;2023-07-29T01:14:11;7.43;;;6.72;;
67442;SDS011;54311;51.726;5.154;2023-07-29T01:16:52;8.52;;;6.75;;
67442;SDS011;54311;51.726;5.154;2023-07-29T01:22:05;7.68;;;6.43;;
67442;SDS011;54311;51.726;5.154;2023-07-29T01:24:32;6.60;;;5.93;;
67442;SDS011;54311;51.726;5.154;2023-07-29T01:26:57;8.38;;;6.30;;
67442;SDS011;54311;51.726;5.154;2023-07-29T01:29:23;6.68;;;6.13;;
67442;SDS011;54311;51.726;5.154;2023-07-29T01:31:48;6.20;;;5.47;;
67442;SDS011;54311;51.726;5.154;2023-07-29T01:36:46;6.05;;;5.43;;
67442;SDS011;54311;51.726;5.154;2023-07-29T01:39:13;7.97;;;5.20;;
67442;SDS011;54311;51.726;5.154;2023-07-29T01:41:39;9.57;;;5.70;;
67442;SDS011;54311;51.726;5.154;2023-07-29T01:44:06;6.20;;;4.97;;
67442;SDS011;54311;51.726;5.154;2023-07-29T01:46:33;5.63;;;5.10;;
67442;SDS011;54311;51.726;5.154;2023-07-29T01:48:58;5.63;;;5.22;;
67442;SDS011;54311;51.726;5.154;2023-07-29T01:51:24;6.47;;;5.05;;
67442;SDS011;54311;51.726;5.154;2023-07-29T01:53:49;7.45;;;4.35;;
67442;SDS011;54311;51.726;5.154;2023-07-29T01:56:14;4.82;;;4.50;;
67442;SDS011;54311;51.726;5.154;2023-07-29T01:58:40;4.55;;;4.15;;
67442;SDS011;54311;51.726;5.154;2023-07-29T02:01:05;4.93;;;4.10;;
67442;SDS011;54311;51.726;5.154;2023-07-29T02:03:30;4.70;;;4.03;;
67442;SDS011;54311;51.726;5.154;2023-07-29T02:05:56;4.72;;;3.97;;
67442;SDS011;54311;51.726;5.154;2023-07-29T02:08:21;3.83;;;3.53;;
67442;SDS011;54311;51.726;5.154;2023-07-29T02:10:47;4.72;;;3.65;;
67442;SDS011;54311;51.726;5.154;2023-07-29T02:13:13;3.83;;;3.50;;
67442;SDS011;54311;51.726;5.154;2023-07-29T02:15:39;3.67;;;3.38;;
67442;SDS011;54311;51.726;5.154;2023-07-29T02:18:04;3.58;;;3.20;;
67442;SDS011;54311;51.726;5.154;2023-07-29T02:20:31;6.47;;;3.88;;
67442;SDS011;54311;51.726;5.154;2023-07-29T02:22:56;3.75;;;3.45;;
67442;SDS011;54311;51.726;5.154;2023-07-29T02:25:22;6.32;;;3.50;;
67442;SDS011;54311;51.726;5.154;2023-07-29T02:27:47;4.00;;;3.60;;
67442;SDS011;54311;51.726;5.154;2023-07-29T02:30:12;4.07;;;3.30;;
67442;SDS011;54311;51.726;5.154;2023-07-29T02:32:38;3.42;;;3.20;;
67442;SDS011;54311;51.726;5.154;2023-07-29T02:35:03;3.80;;;3.50;;
67442;SDS011;54311;51.726;5.154;2023-07-29T02:37:29;3.70;;;3.40;;
67442;SDS011;54311;51.726;5.154;2023-07-29T02:39:55;6.95;;;3.83;;
67442;SDS011;54311;51.726;5.154;2023-07-29T02:42:20;3.88;;;3.15;;
67442;SDS011;54311;51.726;5.154;2023-07-29T02:44:46;4.18;;;3.40;;
67442;SDS011;54311;51.726;5.154;2023-07-29T02:47:11;4.30;;;3.60;;
67442;SDS011;54311;51.726;5.154;2023-07-29T02:49:37;3.33;;;3.15;;
67442;SDS011;54311;51.726;5.154;2023-07-29T02:52:02;3.40;;;3.10;;
67442;SDS011;54311;51.726;5.154;2023-07-29T02:54:28;3.35;;;3.05;;
67442;SDS011;54311;51.726;5.154;2023-07-29T02:56:53;5.40;;;3.30;;
67442;SDS011;54311;51.726;5.154;2023-07-29T02:59:19;5.28;;;3.20;;
67442;SDS011;54311;51.726;5.154;2023-07-29T03:01:44;4.00;;;3.58;;
67442;SDS011;54311;51.726;5.154;2023-07-29T03:04:10;4.30;;;3.90;;
67442;SDS011;54311;51.726;5.154;2023-07-29T03:06:38;4.20;;;3.80;;
67442;SDS011;54311;51.726;5.154;2023-07-29T03:09:03;4.07;;;3.65;;
67442;SDS011;54311;51.726;5.154;2023-07-29T03:11:28;6.57;;;4.32;;
67442;SDS011;54311;51.726;5.154;2023-07-29T03:13:54;4.63;;;3.70;;
67442;SDS011;54311;51.726;5.154;2023-07-29T03:16:19;4.22;;;3.92;;
67442;SDS011;54311;51.726;5.154;2023-07-29T03:18:44;4.07;;;3.80;;
67442;SDS011;54311;51.726;5.154;2023-07-29T03:21:10;4.60;;;3.72;;
67442;SDS011;54311;51.726;5.154;2023-07-29T03:23:36;3.28;;;3.03;;
67442;SDS011;54311;51.726;5.154;2023-07-29T03:26:03;5.13;;;3.80;;
67442;SDS011;54311;51.726;5.154;2023-07-29T03:28:34;4.05;;;3.65;;
67442;SDS011;54311;51.726;5.154;2023-07-29T03:31:02;4.60;;;3.55;;
67442;SDS011;54311;51.726;5.154;2023-07-29T03:33:28;4.05;;;3.75;;
67442;SDS011;54311;51.726;5.154;2023-07-29T03:35:53;3.70;;;3.38;;
67442;SDS011;54311;51.726;5.154;2023-07-29T03:38:19;3.80;;;3.50;;
67442;SDS011;54311;51.726;5.154;2023-07-29T03:40:44;4.45;;;3.92;;
67442;SDS011;54311;51.726;5.154;2023-07-29T03:43:09;4.30;;;3.90;;
67442;SDS011;54311;51.726;5.154;2023-07-29T03:45:35;4.35;;;4.05;;
67442;SDS011;54311;51.726;5.154;2023-07-29T03:48:01;5.35;;;4.85;;
67442;SDS011;54311;51.726;5.154;2023-07-29T03:50:27;4.43;;;4.03;;
67442;SDS011;54311;51.726;5.154;2023-07-29T03:52:53;4.57;;;4.28;;
67442;SDS011;54311;51.726;5.154;2023-07-29T03:55:18;4.57;;;4.18;;
67442;SDS011;54311;51.726;5.154;2023-07-29T03:57:44;6.40;;;3.78;;
67442;SDS011;54311;51.726;5.154;2023-07-29T04:00:09;3.83;;;3.53;;
67442;SDS011;54311;51.726;5.154;2023-07-29T04:02:35;5.00;;;4.47;;
67442;SDS011;54311;51.726;5.154;2023-07-29T04:05:02;5.13;;;4.72;;
67442;SDS011;54311;51.726;5.154;2023-07-29T04:07:28;4.82;;;4.43;;
67442;SDS011;54311;51.726;5.154;2023-07-29T04:09:54;6.25;;;5.00;;
67442;SDS011;54311;51.726;5.154;2023-07-29T04:12:19;5.30;;;4.90;;
67442;SDS011;54311;51.726;5.154;2023-07-29T04:14:46;6.05;;;5.30;;
67442;SDS011;54311;51.726;5.154;2023-07-29T04:17:12;5.00;;;4.47;;
67442;SDS011;54311;51.726;5.154;2023-07-29T04:19:37;5.10;;;4.63;;
67442;SDS011;54311;51.726;5.154;2023-07-29T04:22:02;9.77;;;5.30;;
67442;SDS011;54311;51.726;5.154;2023-07-29T04:24:28;7.80;;;5.30;;
67442;SDS011;54311;51.726;5.154;2023-07-29T04:26:53;5.47;;;5.07;;
67442;SDS011;54311;51.726;5.154;2023-07-29T04:29:19;5.85;;;5.45;;
67442;SDS011;54311;51.726;5.154;2023-07-29T04:31:44;5.18;;;4.72;;
67442;SDS011;54311;51.726;5.154;2023-07-29T04:34:09;5.45;;;5.10;;
67442;SDS011;54311;51.726;5.154;2023-07-29T04:36:35;6.97;;;5.72;;
67442;SDS011;54311;51.726;5.154;2023-07-29T04:39:00;6.90;;;5.90;;
67442;SDS011;54311;51.726;5.154;2023-07-29T04:41:25;6.25;;;5.65;;
67442;SDS011;54311;51.726;5.154;2023-07-29T04:43:51;6.78;;;6.18;;
67442;SDS011;54311;51.726;5.154;2023-07-29T04:46:17;6.63;;;5.80;;
67442;SDS011;54311;51.726;5.154;2023-07-29T04:48:42;6.90;;;6.20;;
67442;SDS011;54311;51.726;5.154;2023-07-29T04:51:08;7.43;;;6.65;;
67442;SDS011;54311;51.726;5.154;2023-07-29T04:53:33;6.95;;;6.25;;
67442;SDS011;54311;51.726;5.154;2023-07-29T04:56:01;6.90;;;6.13;;
67442;SDS011;54311;51.726;5.154;2023-07-29T04:58:27;8.73;;;6.88;;
67442;SDS011;54311;51.726;5.154;2023-07-29T05:00:54;6.72;;;6.10;;
67442;SDS011;54311;51.726;5.154;2023-07-29T05:03:20;8.23;;;7.43;;
67442;SDS011;54311;51.726;5.154;2023-07-29T05:05:45;7.53;;;6.45;;
67442;SDS011;54311;51.726;5.154;2023-07-29T05:08:10;7.60;;;6.90;;
67442;SDS011;54311;51.726;5.154;2023-07-29T05:10:36;8.43;;;7.00;;
67442;SDS011;54311;51.726;5.154;2023-07-29T05:13:01;7.82;;;6.97;;
67442;SDS011;54311;51.726;5.154;2023-07-29T05:15:26;9.73;;;6.68;;
67442;SDS011;54311;51.726;5.154;2023-07-29T05:17:52;7.45;;;6.75;;
67442;SDS011;54311;51.726;5.154;2023-07-29T05:20:17;7.22;;;6.75;;
67442;SDS011;54311;51.726;5.154;2023-07-29T05:22:43;7.20;;;6.13;;
67442;SDS011;54311;51.726;5.154;2023-07-29T05:25:08;11.32;;;6.32;;
67442;SDS011;54311;51.726;5.154;2023-07-29T05:27:34;6.90;;;6.22;;
67442;SDS011;54311;51.726;5.154;2023-07-29T05:29:59;7.43;;;6.65;;
67442;SDS011;54311;51.726;5.154;2023-07-29T05:32:25;5.97;;;5.32;;
67442;SDS011;54311;51.726;5.154;2023-07-29T05:34:50;6.80;;;6.30;;
67442;SDS011;54311;51.726;5.154;2023-07-29T05:37:15;6.38;;;5.85;;
67442;SDS011;54311;51.726;5.154;2023-07-29T05:39:41;7.60;;;6.30;;
67442;SDS011;54311;51.726;5.154;2023-07-29T05:42:06;7.60;;;6.80;;
67442;SDS011;54311;51.726;5.154;2023-07-29T05:44:31;9.65;;;5.95;;
67442;SDS011;54311;51.726;5.154;2023-07-29T05:46:57;6.60;;;5.90;;
67442;SDS011;54311;51.726;5.154;2023-07-29T05:49:23;7.72;;;6.13;;
67442;SDS011;54311;51.726;5.154;2023-07-29T05:51:48;5.93;;;5.45;;
67442;SDS011;54311;51.726;5.154;2023-07-29T05:54:24;6.18;;;5.63;;
67442;SDS011;54311;51.726;5.154;2023-07-29T05:56:49;6.65;;;6.00;;
67442;SDS011;54311;51.726;5.154;2023-07-29T05:59:15;8.95;;;5.95;;
67442;SDS011;54311;51.726;5.154;2023-07-29T06:01:40;7.00;;;6.10;;
67442;SDS011;54311;51.726;5.154;2023-07-29T06:04:05;7.25;;;5.90;;
67442;SDS011;54311;51.726;5.154;2023-07-29T06:06:31;8.82;;;6.68;;
67442;SDS011;54311;51.726;5.154;2023-07-29T06:08:56;7.15;;;6.45;;
67442;SDS011;54311;51.726;5.154;2023-07-29T06:11:23;12.10;;;6.88;;
67442;SDS011;54311;51.726;5.154;2023-07-29T06:13:48;7.38;;;6.68;;
67442;SDS011;54311;51.726;5.154;2023-07-29T06:16:13;7.32;;;6.63;;
67442;SDS011;54311;51.726;5.154;2023-07-29T06:18:39;7.45;;;6.43;;
67442;SDS011;54311;51.726;5.154;2023-07-29T06:21:05;7.45;;;6.93;;
67442;SDS011;54311;51.726;5.154;2023-07-29T06:23:33;7.70;;;6.90;;
67442;SDS011;54311;51.726;5.154;2023-07-29T06:25:58;7.90;;;6.60;;
67442;SDS011;54311;51.726;5.154;2023-07-29T06:28:25;8.85;;;7.40;;
67442;SDS011;54311;51.726;5.154;2023-07-29T06:30:52;7.88;;;7.05;;
67442;SDS011;54311;51.726;5.154;2023-07-29T06:33:17;7.35;;;6.63;;
67442;SDS011;54311;51.726;5.154;2023-07-29T06:35:43;6.78;;;6.10;;
67442;SDS011;54311;51.726;5.154;2023-07-29T06:38:08;6.93;;;5.88;;
67442;SDS011;54311;51.726;5.154;2023-07-29T06:40:34;5.57;;;5.22;;
67442;SDS011;54311;51.726;5.154;2023-07-29T06:42:59;9.30;;;5.80;;
67442;SDS011;54311;51.726;5.154;2023-07-29T06:45:25;6.40;;;5.82;;
67442;SDS011;54311;51.726;5.154;2023-07-29T06:47:53;5.60;;;5.18;;
67442;SDS011;54311;51.726;5.154;2023-07-29T06:50:18;8.93;;;5.38;;
67442;SDS011;54311;51.726;5.154;2023-07-29T06:52:44;5.18;;;4.75;;
67442;SDS011;54311;51.726;5.154;2023-07-29T06:55:10;5.93;;;4.75;;
67442;SDS011;54311;51.726;5.154;2023-07-29T06:57:35;6.43;;;5.25;;
67442;SDS011;54311;51.726;5.154;2023-07-29T07:00:01;5.82;;;4.55;;
67442;SDS011;54311;51.726;5.154;2023-07-29T07:02:27;5.68;;;5.18;;
67442;SDS011;54311;51.726;5.154;2023-07-29T07:04:52;7.18;;;4.50;;
67442;SDS011;54311;51.726;5.154;2023-07-29T07:07:18;5.35;;;4.95;;
67442;SDS011;54311;51.726;5.154;2023-07-29T07:09:43;4.90;;;4.47;;
67442;SDS011;54311;51.726;5.154;2023-07-29T07:12:08;5.15;;;4.65;;
67442;SDS011;54311;51.726;5.154;2023-07-29T07:14:37;5.30;;;4.68;;
67442;SDS011;54311;51.726;5.154;2023-07-29T07:17:02;5.00;;;4.55;;
67442;SDS011;54311;51.726;5.154;2023-07-29T07:19:27;4.63;;;4.22;;
67442;SDS011;54311;51.726;5.154;2023-07-29T07:21:53;5.72;;;4.43;;
67442;SDS011;54311;51.726;5.154;2023-07-29T07:24:18;6.47;;;4.32;;
67442;SDS011;54311;51.726;5.154;2023-07-29T07:26:43;5.13;;;4.70;;
67442;SDS011;54311;51.726;5.154;2023-07-29T07:29:09;4.65;;;4.20;;
67442;SDS011;54311;51.726;5.154;2023-07-29T07:31:34;4.80;;;4.40;;
67442;SDS011;54311;51.726;5.154;2023-07-29T07:34:00;5.32;;;4.93;;
67442;SDS011;54311;51.726;5.154;2023-07-29T07:36:27;7.32;;;4.78;;
67442;SDS011;54311;51.726;5.154;2023-07-29T07:38:52;4.68;;;4.28;;
67442;SDS011;54311;51.726;5.154;2023-07-29T07:41:18;5.30;;;4.90;;
67442;SDS011;54311;51.726;5.154;2023-07-29T07:43:43;5.57;;;4.50;;
67442;SDS011;54311;51.726;5.154;2023-07-29T07:46:08;3.95;;;3.60;;
67442;SDS011;54311;51.726;5.154;2023-07-29T07:48:34;10.10;;;3.67;;
67442;SDS011;54311;51.726;5.154;2023-07-29T07:50:59;5.15;;;4.13;;
67442;SDS011;54311;51.726;5.154;2023-07-29T07:53:24;3.83;;;3.50;;
67442;SDS011;54311;51.726;5.154;2023-07-29T07:55:50;3.83;;;3.53;;
67442;SDS011;54311;51.726;5.154;2023-07-29T07:58:16;3.30;;;2.92;;
67442;SDS011;54311;51.726;5.154;2023-07-29T08:00:41;3.85;;;3.55;;
67442;SDS011;54311;51.726;5.154;2023-07-29T08:03:07;3.25;;;3.05;;
67442;SDS011;54311;51.726;5.154;2023-07-29T08:05:33;3.95;;;3.10;;
67442;SDS011;54311;51.726;5.154;2023-07-29T08:08:00;3.20;;;3.00;;
67442;SDS011;54311;51.726;5.154;2023-07-29T08:10:25;3.47;;;3.17;;
67442;SDS011;54311;51.726;5.154;2023-07-29T08:12:51;3.00;;;2.80;;
67442;SDS011;54311;51.726;5.154;2023-07-29T08:15:16;2.85;;;2.60;;
67442;SDS011;54311;51.726;5.154;2023-07-29T08:17:41;3.22;;;2.92;;
67442;SDS011;54311;51.726;5.154;2023-07-29T08:20:07;3.25;;;2.90;;
67442;SDS011;54311;51.726;5.154;2023-07-29T08:22:32;5.47;;;2.90;;
67442;SDS011;54311;51.726;5.154;2023-07-29T08:24:58;3.35;;;2.58;;
67442;SDS011;54311;51.726;5.154;2023-07-29T08:27:23;3.63;;;2.65;;
67442;SDS011;54311;51.726;5.154;2023-07-29T08:29:48;6.43;;;2.92;;
67442;SDS011;54311;51.726;5.154;2023-07-29T08:32:14;3.85;;;2.67;;
67442;SDS011;54311;51.726;5.154;2023-07-29T08:34:39;2.47;;;2.35;;
67442;SDS011;54311;51.726;5.154;2023-07-29T08:37:04;3.33;;;2.78;;
67442;SDS011;54311;51.726;5.154;2023-07-29T08:39:30;4.63;;;2.30;;
67442;SDS011;54311;51.726;5.154;2023-07-29T08:42:03;4.63;;;2.92;;
67442;SDS011;54311;51.726;5.154;2023-07-29T08:46:56;3.22;;;2.60;;
67442;SDS011;54311;51.726;5.154;2023-07-29T08:49:22;2.53;;;2.42;;
67442;SDS011;54311;51.726;5.154;2023-07-29T08:51:48;3.22;;;2.80;;
67442;SDS011;54311;51.726;5.154;2023-07-29T08:54:14;3.03;;;2.83;;
67442;SDS011;54311;51.726;5.154;2023-07-29T08:56:40;3.22;;;2.55;;
67442;SDS011;54311;51.726;5.154;2023-07-29T08:59:07;3.38;;;2.72;;
67442;SDS011;54311;51.726;5.154;2023-07-29T09:01:32;3.78;;;2.50;;
67442;SDS011;54311;51.726;5.154;2023-07-29T09:03:58;3.58;;;2.92;;
67442;SDS011;54311;51.726;5.154;2023-07-29T09:06:24;5.22;;;3.13;;
67442;SDS011;54311;51.726;5.154;2023-07-29T09:08:51;3.28;;;3.03;;
67442;SDS011;54311;51.726;5.154;2023-07-29T09:11:17;2.78;;;2.63;;
67442;SDS011;54311;51.726;5.154;2023-07-29T09:13:43;3.20;;;2.90;;
67442;SDS011;54311;51.726;5.154;2023-07-29T09:16:08;3.05;;;2.85;;
67442;SDS011;54311;51.726;5.154;2023-07-29T09:18:34;5.22;;;3.10;;
67442;SDS011;54311;51.726;5.154;2023-07-29T09:20:59;5.00;;;2.50;;
67442;SDS011;54311;51.726;5.154;2023-07-29T09:23:26;3.55;;;2.78;;
67442;SDS011;54311;51.726;5.154;2023-07-29T09:25:52;3.47;;;2.60;;
67442;SDS011;54311;51.726;5.154;2023-07-29T09:28:25;2.47;;;2.37;;
67442;SDS011;54311;51.726;5.154;2023-07-29T09:30:52;2.40;;;2.30;;
67442;SDS011;54311;51.726;5.154;2023-07-29T09:33:18;2.88;;;2.58;;
67442;SDS011;54311;51.726;5.154;2023-07-29T09:35:44;2.70;;;2.53;;
67442;SDS011;54311;51.726;5.154;2023-07-29T09:38:13;2.75;;;2.60;;
67442;SDS011;54311;51.726;5.154;2023-07-29T09:40:40;4.40;;;2.45;;
67442;SDS011;54311;51.726;5.154;2023-07-29T09:43:07;3.88;;;2.53;;
67442;SDS011;54311;51.726;5.154;2023-07-29T09:45:34;2.50;;;2.30;;
67442;SDS011;54311;51.726;5.154;2023-07-29T09:48:00;2.75;;;2.55;;
67442;SDS011;54311;51.726;5.154;2023-07-29T09:50:27;2.85;;;2.42;;
67442;SDS011;54311;51.726;5.154;2023-07-29T09:52:53;3.13;;;2.50;;
67442;SDS011;54311;51.726;5.154;2023-07-29T09:55:23;3.92;;;2.47;;
67442;SDS011;54311;51.726;5.154;2023-07-29T09:57:53;2.67;;;2.28;;
67442;SDS011;54311;51.726;5.154;2023-07-29T10:00:21;3.40;;;2.20;;
67442;SDS011;54311;51.726;5.154;2023-07-29T10:02:46;2.80;;;2.63;;
67442;SDS011;54311;51.726;5.154;2023-07-29T10:05:12;2.33;;;2.22;;
67442;SDS011;54311;51.726;5.154;2023-07-29T10:07:38;4.22;;;2.50;;
67442;SDS011;54311;51.726;5.154;2023-07-29T10:10:04;2.47;;;2.33;;
67442;SDS011;54311;51.726;5.154;2023-07-29T10:12:31;2.15;;;2.05;;
67442;SDS011;54311;51.726;5.154;2023-07-29T10:15:04;2.45;;;2.22;;
67442;SDS011;54311;51.726;5.154;2023-07-29T10:17:30;2.47;;;2.28;;
67442;SDS011;54311;51.726;5.154;2023-07-29T10:19:59;2.50;;;2.30;;
67442;SDS011;54311;51.726;5.154;2023-07-29T10:22:25;2.53;;;2.10;;
67442;SDS011;54311;51.726;5.154;2023-07-29T10:24:56;2.30;;;2.20;;
67442;SDS011;54311;51.726;5.154;2023-07-29T10:27:26;2.45;;;2.25;;
67442;SDS011;54311;51.726;5.154;2023-07-29T10:29:52;2.70;;;2.50;;
67442;SDS011;54311;51.726;5.154;2023-07-29T10:32:20;3.30;;;2.03;;
67442;SDS011;54311;51.726;5.154;2023-07-29T10:34:49;4.20;;;2.20;;
67442;SDS011;54311;51.726;5.154;2023-07-29T10:37:14;4.78;;;2.15;;
67442;SDS011;54311;51.726;5.154;2023-07-29T10:39:40;2.53;;;2.33;;
67442;SDS011;54311;51.726;5.154;2023-07-29T10:42:17;2.40;;;2.17;;
67442;SDS011;54311;51.726;5.154;2023-07-29T10:44:46;4.93;;;2.45;;
67442;SDS011;54311;51.726;5.154;2023-07-29T10:47:15;6.65;;;2.38;;
67442;SDS011;54311;51.726;5.154;2023-07-29T10:49:48;4.80;;;2.80;;
67442;SDS011;54311;51.726;5.154;2023-07-29T10:54:53;3.05;;;2.20;;
67442;SDS011;54311;51.726;5.154;2023-07-29T10:57:32;4.32;;;2.28;;
67442;SDS011;54311;51.726;5.154;2023-07-29T11:00:02;4.32;;;2.20;;
67442;SDS011;54311;51.726;5.154;2023-07-29T11:02:29;6.30;;;2.88;;
67442;SDS011;54311;51.726;5.154;2023-07-29T11:04:57;8.90;;;2.90;;
67442;SDS011;54311;51.726;5.154;2023-07-29T11:07:23;2.90;;;2.47;;
67442;SDS011;54311;51.726;5.154;2023-07-29T11:09:52;3.10;;;2.80;;
67442;SDS011;54311;51.726;5.154;2023-07-29T11:20:27;2.88;;;2.67;;
67442;SDS011;54311;51.726;5.154;2023-07-29T11:22:54;2.85;;;2.65;;
67442;SDS011;54311;51.726;5.154;2023-07-29T11:25:21;5.07;;;3.00;;
67442;SDS011;54311;51.726;5.154;2023-07-29T11:27:48;6.75;;;2.90;;
67442;SDS011;54311;51.726;5.154;2023-07-29T11:30:14;2.97;;;2.58;;
67442;SDS011;54311;51.726;5.154;2023-07-29T11:32:41;3.00;;;2.80;;
67442;SDS011;54311;51.726;5.154;2023-07-29T11:35:08;5.68;;;3.20;;
67442;SDS011;54311;51.726;5.154;2023-07-29T11:37:36;5.95;;;3.67;;
67442;SDS011;54311;51.726;5.154;2023-07-29T11:40:01;4.93;;;3.30;;
67442;SDS011;54311;51.726;5.154;2023-07-29T11:42:27;3.28;;;3.08;;
67442;SDS011;54311;51.726;5.154;2023-07-29T11:44:53;4.53;;;3.80;;
67442;SDS011;54311;51.726;5.154;2023-07-29T11:47:21;4.70;;;4.28;;
67442;SDS011;54311;51.726;5.154;2023-07-29T11:49:46;4.70;;;4.18;;
67442;SDS011;54311;51.726;5.154;2023-07-29T11:52:12;5.10;;;4.70;;
67442;SDS011;54311;51.726;5.154;2023-07-29T11:54:38;12.23;;;4.78;;
67442;SDS011;54311;51.726;5.154;2023-07-29T11:57:07;4.85;;;4.50;;
67442;SDS011;54311;51.726;5.154;2023-07-29T11:59:34;9.07;;;4.95;;
67442;SDS011;54311;51.726;5.154;2023-07-29T12:02:00;5.65;;;5.10;;
67442;SDS011;54311;51.726;5.154;2023-07-29T12:04:27;5.43;;;5.03;;
67442;SDS011;54311;51.726;5.154;2023-07-29T12:06:53;7.63;;;5.20;;
67442;SDS011;54311;51.726;5.154;2023-07-29T12:09:19;6.32;;;5.07;;
67442;SDS011;54311;51.726;5.154;2023-07-29T12:11:45;5.95;;;5.45;;
67442;SDS011;54311;51.726;5.154;2023-07-29T12:14:10;5.72;;;5.22;;
67442;SDS011;54311;51.726;5.154;2023-07-29T12:16:48;6.03;;;5.47;;
67442;SDS011;54311;51.726;5.154;2023-07-29T12:19:14;6.30;;;5.80;;
67442;SDS011;54311;51.726;5.154;2023-07-29T12:21:41;5.38;;;4.85;;
67442;SDS011;54311;51.726;5.154;2023-07-29T12:24:07;4.40;;;4.13;;
67442;SDS011;54311;51.726;5.154;2023-07-29T12:26:32;4.45;;;4.13;;
67442;SDS011;54311;51.726;5.154;2023-07-29T12:28:58;4.00;;;3.40;;
67442;SDS011;54311;51.726;5.154;2023-07-29T12:31:32;3.10;;;3.00;;
67442;SDS011;54311;51.726;5.154;2023-07-29T12:33:58;4.95;;;3.67;;
67442;SDS011;54311;51.726;5.154;2023-07-29T12:36:27;4.13;;;3.72;;
67442;SDS011;54311;51.726;5.154;2023-07-29T12:39:05;3.83;;;3.53;;
67442;SDS011;54311;51.726;5.154;2023-07-29T12:41:30;5.10;;;4.22;;
67442;SDS011;54311;51.726;5.154;2023-07-29T12:43:55;3.42;;;3.17;;
67442;SDS011;54311;51.726;5.154;2023-07-29T12:46:21;3.25;;;3.15;;
67442;SDS011;54311;51.726;5.154;2023-07-29T12:48:46;3.90;;;3.70;;
67442;SDS011;54311;51.726;5.154;2023-07-29T12:51:11;4.55;;;4.20;;
67442;SDS011;54311;51.726;5.154;2023-07-29T12:53:37;4.05;;;3.78;;
67442;SDS011;54311;51.726;5.154;2023-07-29T12:56:02;4.65;;;4.35;;
67442;SDS011;54311;51.726;5.154;2023-07-29T12:58:28;4.32;;;4.00;;
67442;SDS011;54311;51.726;5.154;2023-07-29T13:00:53;7.35;;;4.10;;
67442;SDS011;54311;51.726;5.154;2023-07-29T13:03:19;3.92;;;3.63;;
67442;SDS011;54311;51.726;5.154;2023-07-29T13:05:45;4.13;;;3.92;;
67442;SDS011;54311;51.726;5.154;2023-07-29T13:08:11;4.40;;;4.00;;
67442;SDS011;54311;51.726;5.154;2023-07-29T13:10:38;3.92;;;3.72;;
67442;SDS011;54311;51.726;5.154;2023-07-29T13:13:03;3.05;;;2.83;;
67442;SDS011;54311;51.726;5.154;2023-07-29T13:15:28;3.30;;;2.85;;
67442;SDS011;54311;51.726;5.154;2023-07-29T13:17:54;2.72;;;2.40;;
67442;SDS011;54311;51.726;5.154;2023-07-29T13:20:19;2.78;;;2.67;;
67442;SDS011;54311;51.726;5.154;2023-07-29T13:22:44;2.97;;;2.40;;
67442;SDS011;54311;51.726;5.154;2023-07-29T13:25:10;4.20;;;3.13;;
67442;SDS011;54311;51.726;5.154;2023-07-29T13:27:35;4.32;;;2.55;;
67442;SDS011;54311;51.726;5.154;2023-07-29T13:30:00;2.22;;;2.13;;
67442;SDS011;54311;51.726;5.154;2023-07-29T13:32:26;2.38;;;2.20;;
67442;SDS011;54311;51.726;5.154;2023-07-29T13:34:51;2.88;;;2.38;;
67442;SDS011;54311;51.726;5.154;2023-07-29T13:37:16;2.80;;;2.65;;
67442;SDS011;54311;51.726;5.154;2023-07-29T13:39:42;2.83;;;2.60;;
67442;SDS011;54311;51.726;5.154;2023-07-29T13:42:07;3.63;;;2.97;;
67442;SDS011;54311;51.726;5.154;2023-07-29T13:44:33;3.50;;;2.75;;
67442;SDS011;54311;51.726;5.154;2023-07-29T13:46:58;2.50;;;2.40;;
67442;SDS011;54311;51.726;5.154;2023-07-29T13:49:23;5.50;;;2.70;;
67442;SDS011;54311;51.726;5.154;2023-07-29T13:51:49;3.92;;;2.33;;
67442;SDS011;54311;51.726;5.154;2023-07-29T13:54:14;2.08;;;1.98;;
67442;SDS011;54311;51.726;5.154;2023-07-29T13:56:39;2.50;;;2.35;;
67442;SDS011;54311;51.726;5.154;2023-07-29T13:59:05;2.40;;;2.30;;
67442;SDS011;54311;51.726;5.154;2023-07-29T14:01:30;2.15;;;2.05;;
67442;SDS011;54311;51.726;5.154;2023-07-29T14:03:55;2.25;;;2.15;;
67442;SDS011;54311;51.726;5.154;2023-07-29T14:06:21;2.50;;;2.30;;
67442;SDS011;54311;51.726;5.154;2023-07-29T14:08:46;2.67;;;2.35;;
67442;SDS011;54311;51.726;5.154;2023-07-29T14:11:11;2.45;;;2.35;;
67442;SDS011;54311;51.726;5.154;2023-07-29T14:13:37;2.28;;;2.17;;
67442;SDS011;54311;51.726;5.154;2023-07-29T14:16:02;3.20;;;2.30;;
67442;SDS011;54311;51.726;5.154;2023-07-29T14:18:28;2.45;;;2.35;;
67442;SDS011;54311;51.726;5.154;2023-07-29T14:20:53;2.58;;;2.47;;
67442;SDS011;54311;51.726;5.154;2023-07-29T14:23:18;2.83;;;2.63;;
67442;SDS011;54311;51.726;5.154;2023-07-29T14:25:44;3.22;;;2.97;;
67442;SDS011;54311;51.726;5.154;2023-07-29T14:28:09;3.30;;;3.10;;
67442;SDS011;54311;51.726;5.154;2023-07-29T14:30:34;5.65;;;2.85;;
67442;SDS011;54311;51.726;5.154;2023-07-29T14:33:00;3.15;;;2.97;;
67442;SDS011;54311;51.726;5.154;2023-07-29T14:35:25;3.20;;;3.10;;
67442;SDS011;54311;51.726;5.154;2023-07-29T14:37:51;3.38;;;3.05;;
67442;SDS011;54311;51.726;5.154;2023-07-29T14:40:16;3.22;;;3.00;;
67442;SDS011;54311;51.726;5.154;2023-07-29T14:42:42;3.45;;;3.15;;
67442;SDS011;54311;51.726;5.154;2023-07-29T14:45:07;3.28;;;3.00;;
67442;SDS011;54311;51.726;5.154;2023-07-29T14:47:33;3.25;;;2.97;;
67442;SDS011;54311;51.726;5.154;2023-07-29T14:49:59;3.30;;;3.10;;
67442;SDS011;54311;51.726;5.154;2023-07-29T14:52:25;3.20;;;2.95;;
67442;SDS011;54311;51.726;5.154;2023-07-29T14:54:50;3.55;;;2.72;;
67442;SDS011;54311;51.726;5.154;2023-07-29T14:57:16;3.15;;;2.95;;
67442;SDS011;54311;51.726;5.154;2023-07-29T14:59:42;3.95;;;3.45;;
67442;SDS011;54311;51.726;5.154;2023-07-29T15:02:07;3.13;;;2.92;;